createdAt,value
2023-04-18T00:01:11.408Z,62.34
2023-04-18T00:04:15.381Z,62.20
2023-04-18T00:07:19.364Z,61.81
2023-04-18T00:10:25.330Z,62.39
2023-04-18T00:13:28.971Z,62.49
2023-04-18T00:16:33.289Z,63.34
2023-04-18T00:19:38.578Z,63.79
2023-04-18T00:22:43.983Z,63.73
2023-04-18T00:25:48.820Z,64.02
2023-04-18T00:28:52.744Z,64.19
2023-04-18T00:31:56.200Z,64.41
2023-04-18T00:34:59.919Z,64.47
2023-04-18T00:38:03.388Z,65.11
2023-04-18T00:41:08.597Z,64.67
2023-04-18T00:44:12.186Z,64.21
2023-04-18T00:47:17.134Z,64.85
2023-04-18T00:50:21.330Z,63.99
2023-04-18T00:53:25.514Z,63.60
2023-04-18T00:56:30.788Z,63.78
2023-04-18T00:59:35.550Z,63.57
2023-04-18T01:02:40.659Z,63.71
2023-04-18T01:05:44.582Z,62.97
2023-04-18T01:08:50.528Z,63.28
2023-04-18T01:11:56.464Z,63.65
2023-04-18T01:15:00.742Z,63.25
2023-04-18T01:18:07.736Z,64.06
2023-04-18T01:21:11.390Z,63.60
2023-04-18T01:24:17.938Z,63.83
2023-04-18T01:27:21.461Z,63.88
2023-04-18T01:30:25.236Z,63.99
2023-04-18T01:33:28.726Z,63.44
2023-04-18T01:36:33.077Z,65.06
2023-04-18T01:39:38.142Z,64.04
2023-04-18T01:42:41.935Z,65.58
2023-04-18T01:45:47.456Z,65.98
2023-04-18T01:48:51.370Z,66.41
2023-04-18T01:51:57.114Z,66.06
2023-04-18T01:55:04.039Z,65.48
2023-04-18T01:58:07.748Z,65.13
2023-04-18T02:01:13.256Z,64.57
2023-04-18T02:04:16.910Z,66.20
2023-04-18T02:07:23.423Z,64.64
2023-04-18T02:10:28.902Z,64.71
2023-04-18T02:13:32.749Z,64.04
2023-04-18T02:16:36.600Z,63.63
2023-04-18T02:19:41.117Z,63.55
2023-04-18T02:22:44.951Z,65.43
2023-04-18T02:25:50.846Z,65.40
2023-04-18T02:28:54.454Z,64.26
2023-04-18T02:31:59.425Z,64.51
2023-04-18T02:35:03.086Z,65.56
2023-04-18T02:38:06.971Z,65.44
2023-04-18T02:41:15.329Z,67.84
2023-04-18T02:44:19.281Z,66.11
2023-04-18T02:47:23.243Z,64.95
2023-04-18T02:50:27.085Z,64.74
2023-04-18T02:53:32.465Z,65.91
2023-04-18T02:56:40.094Z,65.18
2023-04-18T03:00:08.430Z,65.04
2023-04-18T03:03:36.586Z,65.27
2023-04-18T03:07:02.651Z,64.63
2023-04-18T03:10:11.453Z,64.40
2023-04-18T03:13:17.610Z,65.61
2023-04-18T03:16:23.247Z,64.62
2023-04-18T03:19:27.244Z,63.77
2023-04-18T03:22:32.940Z,63.39
2023-04-18T03:25:36.753Z,64.39
2023-04-18T03:28:43.391Z,63.77
2023-04-18T03:31:47.366Z,63.25
2023-04-18T03:34:52.311Z,63.11
2023-04-18T03:37:56.104Z,63.28
2023-04-18T03:41:06.989Z,63.25
2023-04-18T03:44:15.738Z,63.24
2023-04-18T03:47:19.723Z,63.42
2023-04-18T03:50:26.628Z,64.46
2023-04-18T03:53:33.251Z,64.40
2023-04-18T03:56:37.345Z,64.00
2023-04-18T03:59:43.018Z,63.80
2023-04-18T04:02:47.239Z,63.44
2023-04-18T04:05:57.871Z,63.23
2023-04-18T04:09:01.929Z,63.29
2023-04-18T04:12:06.905Z,63.95
2023-04-18T04:15:13.058Z,63.62
2023-04-18T04:18:29.822Z,63.44
2023-04-18T04:21:35.953Z,64.60
2023-04-18T04:24:42.284Z,63.55
2023-04-18T04:27:49.735Z,64.34
2023-04-18T04:30:55.563Z,64.37
2023-04-18T04:33:59.115Z,63.67
2023-04-18T04:37:03.076Z,63.06
2023-04-18T04:40:10.757Z,64.32
2023-04-18T04:43:20.479Z,64.64
2023-04-18T04:46:26.693Z,63.67
2023-04-18T04:49:31.393Z,65.42
2023-04-18T04:52:35.081Z,65.02
2023-04-18T04:55:40.128Z,64.57
2023-04-18T04:58:45.158Z,64.12
2023-04-18T05:02:01.531Z,63.68
2023-04-18T05:05:05.581Z,63.92
2023-04-18T05:08:09.517Z,62.96
2023-04-18T05:11:13.068Z,63.38
2023-04-18T05:14:17.680Z,63.39
2023-04-18T05:17:22.563Z,64.10
2023-04-18T05:20:26.382Z,63.71
2023-04-18T05:23:29.944Z,65.50
2023-04-18T05:26:33.703Z,64.53
2023-04-18T05:29:37.066Z,64.61
2023-04-18T05:32:42.397Z,65.63
2023-04-18T05:35:45.929Z,65.81
2023-04-18T05:38:49.791Z,66.91
2023-04-18T05:41:53.271Z,69.58
2023-04-18T05:44:57.669Z,67.98
2023-04-18T05:48:02.573Z,67.95
2023-04-18T05:51:06.780Z,66.83
2023-04-18T05:54:10.582Z,67.23
2023-04-18T05:57:14.391Z,67.20
2023-04-18T06:00:18.855Z,67.14
2023-04-18T06:03:24.150Z,67.47
2023-04-18T06:06:27.853Z,66.99
2023-04-18T06:09:31.595Z,67.35
2023-04-18T06:12:35.202Z,66.47
2023-04-18T06:15:39.005Z,66.09
2023-04-18T06:18:43.863Z,66.00
2023-04-18T06:21:47.939Z,65.37
2023-04-18T06:24:51.520Z,65.57
2023-04-18T06:27:55.342Z,65.87
2023-04-18T06:30:58.849Z,65.43
2023-04-18T06:34:04.068Z,67.27
2023-04-18T06:37:07.692Z,66.87
2023-04-18T06:40:12.537Z,65.94
2023-04-18T06:43:16.044Z,65.00
2023-04-18T06:46:22.435Z,63.42
2023-04-18T06:49:27.324Z,64.80
2023-04-18T06:52:31.134Z,64.04
2023-04-18T06:55:34.629Z,64.46
2023-04-18T06:58:38.317Z,63.95
2023-04-18T07:01:42.665Z,63.79
2023-04-18T07:04:48.040Z,63.42
2023-04-18T07:07:51.724Z,63.08
2023-04-18T07:10:55.669Z,62.84
2023-04-18T07:13:59.106Z,61.24
2023-04-18T07:17:03.081Z,60.84
2023-04-18T07:20:12.350Z,63.14
2023-04-18T07:23:18.032Z,61.50
2023-04-18T07:26:21.623Z,62.47
2023-04-18T07:29:25.440Z,61.43
2023-04-18T07:32:28.831Z,61.77
2023-04-18T07:35:34.144Z,62.13
2023-04-18T07:38:37.817Z,61.87
2023-04-18T07:41:41.581Z,61.40
2023-04-18T07:44:45.190Z,61.07
2023-04-18T07:47:49.091Z,61.14
2023-04-18T07:50:54.484Z,60.66
2023-04-18T07:53:58.477Z,60.76
2023-04-18T07:57:01.961Z,61.05
2023-04-18T08:00:07.353Z,60.52
2023-04-18T08:03:16.534Z,61.21
2023-04-18T08:06:22.685Z,59.86
2023-04-18T08:09:26.426Z,58.82
2023-04-18T08:12:30.583Z,58.81
2023-04-18T08:15:33.977Z,59.46
2023-04-18T08:18:37.773Z,61.21
2023-04-18T08:21:42.748Z,60.83
2023-04-18T08:24:57.222Z,60.16
2023-04-18T08:28:07.098Z,61.02
2023-04-18T08:31:13.584Z,59.72
2023-04-18T08:34:17.194Z,60.64
2023-04-18T08:37:22.299Z,60.92
2023-04-18T08:40:25.706Z,61.06
2023-04-18T08:43:31.226Z,61.59
2023-04-18T08:46:36.046Z,61.31
2023-04-18T08:49:40.017Z,60.15
2023-04-18T08:52:48.934Z,59.13
2023-04-18T08:55:55.182Z,58.68
2023-04-18T08:59:00.247Z,57.92
2023-04-18T09:02:05.033Z,58.91
2023-04-18T09:05:13.131Z,58.82
2023-04-18T09:08:25.120Z,59.00
2023-04-18T09:11:31.813Z,59.23
2023-04-18T09:14:37.442Z,58.69
2023-04-18T09:17:43.897Z,60.98
2023-04-18T09:20:49.991Z,59.24
2023-04-18T09:24:17.592Z,57.46
2023-04-18T09:27:23.063Z,58.20
2023-04-18T09:30:36.988Z,58.82
2023-04-18T09:33:43.116Z,58.75
2023-04-18T09:36:46.521Z,56.87
2023-04-18T09:39:51.923Z,57.20
2023-04-18T09:42:55.643Z,56.41
2023-04-18T09:46:01.190Z,56.21
2023-04-18T09:49:04.844Z,56.12
2023-04-18T09:52:09.678Z,55.92
2023-04-18T09:55:16.275Z,55.78
2023-04-18T09:58:23.447Z,54.06
2023-04-18T10:01:29.871Z,53.12
2023-04-18T10:04:34.230Z,51.68
2023-04-18T10:07:38.762Z,51.92
2023-04-18T10:10:45.034Z,51.62
2023-04-18T10:13:51.038Z,50.08
2023-04-18T10:16:54.912Z,49.61
2023-04-18T10:20:10.075Z,49.89
2023-04-18T10:23:36.541Z,50.85
2023-04-18T10:26:50.350Z,51.53
2023-04-18T10:29:55.211Z,50.78
2023-04-18T10:32:58.609Z,50.00
2023-04-18T10:36:06.196Z,50.17
2023-04-18T10:39:22.491Z,48.71
2023-04-18T10:43:00.494Z,49.33
2023-04-18T10:46:31.776Z,50.78
2023-04-18T10:49:37.795Z,49.25
2023-04-18T10:52:42.128Z,49.56
2023-04-18T10:55:56.810Z,51.99
2023-04-18T10:59:03.681Z,52.05
2023-04-18T11:02:20.187Z,51.55
2023-04-18T11:05:26.575Z,51.63
2023-04-18T11:08:30.857Z,51.33
2023-04-18T11:11:34.370Z,52.18
2023-04-18T11:14:42.924Z,51.14
2023-04-18T11:17:46.463Z,50.79
2023-04-18T11:20:51.801Z,51.57
2023-04-18T11:23:57.806Z,51.81
2023-04-18T11:27:01.858Z,53.57
2023-04-18T11:30:08.339Z,54.44
2023-04-18T11:33:12.919Z,54.73
2023-04-18T11:36:16.504Z,55.71
2023-04-18T11:39:20.758Z,57.24
2023-04-18T11:42:28.056Z,56.44
2023-04-18T11:45:33.506Z,55.92
2023-04-18T11:48:37.332Z,55.87
2023-04-18T11:51:44.765Z,58.18
2023-04-18T11:54:48.409Z,57.93
2023-04-18T11:57:53.886Z,57.57
2023-04-18T12:00:58.937Z,57.73
2023-04-18T12:04:04.035Z,57.54
2023-04-18T12:07:07.687Z,58.54
2023-04-18T12:10:25.625Z,57.34
2023-04-18T12:13:35.963Z,56.97
2023-04-18T12:16:42.817Z,56.54
2023-04-18T12:19:49.283Z,56.51
2023-04-18T12:22:55.126Z,55.61
2023-04-18T12:26:03.228Z,57.95
2023-04-18T12:29:06.895Z,57.21
2023-04-18T12:32:11.604Z,56.23
2023-04-18T12:35:15.598Z,56.84
2023-04-18T12:38:22.639Z,57.23
2023-04-18T12:41:26.930Z,56.88
2023-04-18T12:44:30.479Z,56.50
2023-04-18T12:47:35.924Z,57.38
2023-04-18T12:50:39.786Z,56.30
2023-04-18T12:53:43.572Z,56.01
2023-04-18T12:56:47.497Z,56.13
2023-04-18T12:59:51.703Z,56.45
2023-04-18T13:02:58.465Z,56.51
2023-04-18T13:06:02.422Z,56.70
2023-04-18T13:09:05.851Z,56.10
2023-04-18T13:12:09.812Z,57.31
2023-04-18T13:15:13.336Z,57.35
2023-04-18T13:18:18.488Z,56.65
2023-04-18T13:21:24.957Z,56.22
2023-04-18T13:24:28.837Z,55.74
2023-04-18T13:27:32.570Z,55.75
2023-04-18T13:30:37.535Z,56.24
2023-04-18T13:33:42.601Z,56.73
2023-04-18T13:36:46.869Z,57.48
2023-04-18T13:39:51.054Z,56.06
2023-04-18T13:42:54.848Z,54.95
2023-04-18T13:45:58.363Z,54.02
2023-04-18T13:49:03.541Z,54.00
2023-04-18T13:52:07.057Z,53.62
2023-04-18T13:55:12.508Z,52.69
2023-04-18T13:58:16.446Z,52.44
2023-04-18T14:01:21.052Z,51.76
2023-04-18T14:04:26.177Z,50.94
2023-04-18T14:07:31.217Z,51.96
2023-04-18T14:10:35.002Z,51.81
2023-04-18T14:13:39.118Z,51.49
2023-04-18T14:16:42.603Z,51.85
2023-04-18T14:19:48.173Z,52.00
2023-04-18T14:22:53.145Z,51.56
2023-04-18T14:25:57.321Z,51.42
2023-04-18T14:29:01.076Z,52.58
2023-04-18T14:32:08.243Z,51.49
2023-04-18T14:35:13.222Z,50.81
2023-04-18T14:38:17.159Z,51.80
2023-04-18T14:41:20.645Z,51.97
2023-04-18T14:44:24.537Z,51.84
2023-04-18T14:47:31.992Z,51.93
2023-04-18T14:50:38.713Z,50.82
2023-04-18T14:53:43.704Z,53.21
2023-04-18T14:56:47.540Z,53.79
2023-04-18T14:59:51.352Z,53.11
2023-04-18T15:02:55.670Z,52.61
2023-04-18T15:06:00.597Z,52.92
2023-04-18T15:09:04.597Z,54.42
2023-04-18T15:12:08.811Z,54.65
2023-04-18T15:15:14.067Z,54.32
2023-04-18T15:18:17.497Z,53.81
2023-04-18T15:21:22.569Z,53.42
2023-04-18T15:24:25.964Z,52.65
2023-04-18T15:27:30.059Z,52.30
2023-04-18T15:30:34.040Z,51.74
2023-04-18T15:33:37.747Z,51.54
2023-04-18T15:36:42.581Z,52.18
2023-04-18T15:39:46.338Z,51.75
2023-04-18T15:42:51.037Z,52.00
2023-04-18T15:45:54.763Z,52.00
2023-04-18T15:48:58.214Z,51.89
2023-04-18T15:52:07.378Z,51.43
2023-04-18T15:55:12.461Z,51.35
2023-04-18T15:58:16.353Z,51.72
2023-04-18T16:01:20.669Z,51.63
2023-04-18T16:04:24.421Z,51.95
2023-04-18T16:07:29.328Z,52.47
2023-04-18T16:10:33.122Z,51.93
2023-04-18T16:13:38.255Z,50.91
2023-04-18T16:16:42.704Z,50.15
2023-04-18T16:19:46.241Z,49.93
2023-04-18T16:22:51.295Z,50.85
2023-04-18T16:25:55.669Z,50.09
2023-04-18T16:28:59.617Z,50.57
2023-04-18T16:32:03.116Z,50.46
2023-04-18T16:35:10.199Z,50.39
2023-04-18T16:38:15.092Z,50.40
2023-04-18T16:41:19.183Z,50.63
2023-04-18T16:44:22.699Z,50.11
2023-04-18T16:47:26.507Z,51.15
2023-04-18T16:50:30.308Z,51.51
2023-04-18T16:53:36.096Z,51.29
2023-04-18T16:56:39.862Z,50.87
2023-04-18T16:59:43.791Z,51.42
2023-04-18T17:02:48.381Z,50.53
2023-04-18T17:05:52.326Z,51.13
2023-04-18T17:08:58.309Z,51.16
2023-04-18T17:12:03.377Z,51.42
2023-04-18T17:15:07.752Z,51.10
2023-04-18T17:18:11.782Z,50.87
2023-04-18T17:21:15.398Z,51.20
2023-04-18T17:24:22.487Z,50.92
2023-04-18T17:27:25.985Z,51.05
2023-04-18T17:30:29.785Z,51.94
2023-04-18T17:33:33.772Z,51.53
2023-04-18T17:36:37.593Z,51.54
2023-04-18T17:39:42.549Z,51.65
2023-04-18T17:42:47.762Z,52.01
2023-04-18T17:45:51.743Z,52.22
2023-04-18T17:48:55.674Z,52.13
2023-04-18T17:51:59.116Z,52.45
2023-04-18T17:55:04.445Z,52.48
2023-04-18T17:58:07.967Z,52.57
2023-04-18T18:04:35.611Z,53.40
2023-04-18T18:07:45.904Z,53.71
2023-04-18T18:10:53.428Z,54.18
2023-04-18T18:13:59.282Z,53.78
2023-04-18T18:17:03.319Z,54.44
2023-04-18T18:20:09.902Z,54.59
2023-04-18T18:23:13.447Z,55.20
2023-04-18T18:26:18.930Z,55.20
2023-04-18T18:29:25.103Z,54.72
2023-04-18T18:32:29.133Z,54.65
2023-04-18T18:35:32.780Z,54.87
2023-04-18T18:38:37.447Z,55.01
2023-04-18T18:41:43.372Z,55.38
2023-04-18T18:44:47.126Z,55.58
2023-04-18T18:47:51.178Z,55.46
2023-04-18T18:50:56.665Z,55.24
2023-04-18T18:54:00.318Z,55.65
2023-04-18T18:57:05.825Z,55.95
2023-04-18T19:00:12.073Z,55.37
2023-04-18T19:03:19.042Z,55.44
2023-04-18T19:06:23.472Z,55.98
2023-04-18T19:09:27.452Z,56.11
2023-04-18T19:12:32.715Z,56.42
2023-04-18T19:15:36.882Z,56.55
2023-04-18T19:18:41.540Z,56.44
2023-04-18T19:21:46.096Z,55.88
2023-04-18T19:24:49.611Z,55.80
2023-04-18T19:27:54.774Z,56.10
2023-04-18T19:30:58.376Z,56.29
2023-04-18T19:34:03.869Z,56.28
2023-04-18T19:37:07.284Z,55.99
2023-04-18T19:40:14.274Z,56.17
2023-04-18T19:43:19.625Z,55.69
2023-04-18T19:46:24.054Z,55.22
2023-04-18T19:49:27.622Z,55.26
2023-04-18T19:52:31.906Z,55.45
2023-04-18T19:55:35.568Z,55.87
2023-04-18T19:58:46.741Z,56.30
2023-04-18T20:01:50.399Z,55.72
2023-04-18T20:04:54.466Z,55.62
2023-04-18T20:07:58.100Z,55.53
2023-04-18T20:11:04.718Z,55.52
2023-04-18T20:14:10.278Z,55.53
2023-04-18T20:17:14.700Z,55.78
2023-04-18T20:20:18.199Z,56.58
2023-04-18T20:23:22.465Z,56.24
2023-04-18T20:26:26.121Z,56.05
2023-04-18T20:29:32.477Z,56.34
2023-04-18T20:32:35.967Z,55.95
2023-04-18T20:35:40.611Z,56.01
2023-04-18T20:38:44.497Z,55.65
2023-04-18T20:41:50.981Z,55.56
2023-04-18T20:44:56.226Z,55.53
2023-04-18T20:48:00.831Z,55.86
2023-04-18T20:51:04.510Z,56.21
2023-04-18T20:54:08.305Z,55.74
2023-04-18T20:57:11.881Z,55.60
2023-04-18T21:00:18.450Z,55.68
2023-04-18T21:03:22.059Z,55.75
2023-04-18T21:06:27.209Z,55.51
2023-04-18T21:09:36.427Z,55.06
2023-04-18T21:12:40.313Z,55.78
2023-04-18T21:15:45.426Z,56.22
2023-04-18T21:18:49.320Z,56.07
2023-04-18T21:21:52.775Z,56.07
2023-04-18T21:24:56.719Z,55.82
2023-04-18T21:28:00.570Z,55.76
2023-04-18T21:31:05.920Z,55.72
2023-04-18T21:34:11.261Z,55.51
2023-04-18T21:37:14.972Z,56.47
2023-04-18T21:40:18.930Z,56.71
2023-04-18T21:43:22.732Z,56.44
2023-04-18T21:46:27.745Z,56.71
2023-04-18T21:49:31.443Z,56.33
2023-04-18T21:52:34.970Z,55.91
2023-04-18T21:55:38.735Z,55.59
2023-04-18T21:58:42.435Z,56.09
2023-04-18T22:01:47.477Z,56.06
2023-04-18T22:04:51.307Z,55.94
2023-04-18T22:07:58.412Z,56.06
2023-04-18T22:11:02.211Z,55.88
2023-04-18T22:14:06.290Z,55.88
2023-04-18T22:17:11.221Z,56.38
2023-04-18T22:20:15.123Z,56.20
2023-04-18T22:23:18.459Z,56.25
2023-04-18T22:26:22.319Z,56.28
2023-04-18T22:29:26.896Z,55.55
2023-04-18T22:32:32.403Z,55.44
2023-04-18T22:35:36.027Z,55.93
2023-04-18T22:38:39.873Z,55.81
2023-04-18T22:41:43.303Z,55.86
2023-04-18T22:44:49.948Z,55.91
2023-04-18T22:47:54.848Z,56.03
2023-04-18T22:51:01.803Z,56.01
2023-04-18T22:54:05.279Z,55.89
2023-04-18T22:57:09.171Z,56.32
2023-04-18T23:00:14.560Z,56.08
2023-04-18T23:03:20.126Z,56.59
2023-04-18T23:06:23.760Z,56.96
2023-04-18T23:09:27.702Z,57.05
2023-04-18T23:12:31.242Z,56.45
2023-04-18T23:15:35.274Z,56.52
2023-04-18T23:18:42.192Z,56.65
2023-04-18T23:21:47.636Z,56.73
2023-04-18T23:24:52.722Z,56.60
2023-04-18T23:27:56.508Z,57.07
2023-04-18T23:31:00.299Z,57.51
2023-04-18T23:34:05.520Z,57.47
2023-04-18T23:37:09.644Z,57.57
2023-04-18T23:40:13.510Z,57.46
2023-04-18T23:43:17.006Z,57.92
2023-04-18T23:46:20.884Z,57.80
2023-04-18T23:49:27.989Z,57.77
2023-04-18T23:52:31.697Z,58.12
2023-04-18T23:55:35.295Z,57.95
2023-04-18T23:58:39.071Z,58.11
